createdAt,value
2018-03-16T00:00:04.072Z,73.31
2018-03-16T00:02:32.572Z,73.15
2018-03-16T00:05:01.181Z,74.03
2018-03-16T00:07:29.561Z,73.75
2018-03-16T00:09:58.333Z,73.47
2018-03-16T00:12:26.621Z,73.33
2018-03-16T00:14:55.195Z,73.09
2018-03-16T00:17:23.467Z,73.23
2018-03-16T00:19:51.732Z,73.96
2018-03-16T00:25:21.596Z,73.55
2018-03-16T00:27:49.900Z,73.07
2018-03-16T00:30:18.410Z,73.16
2018-03-16T00:32:47.488Z,73.63
2018-03-16T00:35:15.880Z,74.56
2018-03-16T00:37:44.923Z,73.85
2018-03-16T00:40:13.208Z,73.80
2018-03-16T00:42:41.497Z,73.92
2018-03-16T00:45:09.768Z,73.83
2018-03-16T00:47:38.141Z,73.94
2018-03-16T00:50:06.418Z,73.31
2018-03-16T00:52:34.681Z,73.85
2018-03-16T00:55:02.995Z,74.11
2018-03-16T00:57:32.029Z,74.19
2018-03-16T01:00:00.304Z,73.99
2018-03-16T01:02:28.600Z,74.32
2018-03-16T01:04:56.864Z,73.78
2018-03-16T01:07:25.139Z,74.01
2018-03-16T01:09:53.519Z,74.00
2018-03-16T01:12:22.543Z,73.96
2018-03-16T01:14:52.078Z,74.04
2018-03-16T01:17:21.143Z,74.39
2018-03-16T01:19:49.423Z,73.90
2018-03-16T01:22:17.715Z,74.22
2018-03-16T01:24:46.599Z,74.26
2018-03-16T01:27:14.868Z,73.81
2018-03-16T01:29:43.209Z,74.41
2018-03-16T01:32:12.332Z,74.98
2018-03-16T01:34:40.609Z,74.94
2018-03-16T01:37:08.912Z,75.15
2018-03-16T01:39:37.809Z,75.21
2018-03-16T01:42:06.060Z,74.51
2018-03-16T01:44:34.353Z,74.16
2018-03-16T01:47:02.645Z,74.37
2018-03-16T01:49:30.942Z,74.37
2018-03-16T01:51:59.459Z,74.15
2018-03-16T01:54:28.271Z,74.56
2018-03-16T01:56:56.971Z,74.23
2018-03-16T01:59:25.255Z,73.75
2018-03-16T02:01:53.553Z,73.69
2018-03-16T02:04:21.938Z,73.79
2018-03-16T02:06:50.207Z,74.83
2018-03-16T02:09:18.523Z,74.55
2018-03-16T02:11:47.715Z,74.32
2018-03-16T02:14:16.760Z,73.96
2018-03-16T02:16:45.121Z,74.26
2018-03-16T02:19:14.820Z,74.46
2018-03-16T02:21:43.092Z,74.73
2018-03-16T02:24:11.372Z,74.66
2018-03-16T02:26:40.387Z,74.81
2018-03-16T02:29:09.312Z,74.42
2018-03-16T02:31:37.581Z,74.58
2018-03-16T02:34:05.901Z,74.35
2018-03-16T02:36:35.456Z,73.78
2018-03-16T02:39:03.755Z,74.41
2018-03-16T02:41:32.068Z,73.75
2018-03-16T02:44:01.999Z,74.74
2018-03-16T02:46:31.111Z,73.93
2018-03-16T02:48:59.393Z,75.05
2018-03-16T02:51:27.678Z,74.75
2018-03-16T02:53:55.980Z,74.28
2018-03-16T02:56:24.243Z,74.59
2018-03-16T02:58:53.126Z,74.21
2018-03-16T03:01:21.418Z,74.25
2018-03-16T03:03:49.696Z,74.65
2018-03-16T03:06:18.561Z,73.78
2018-03-16T03:08:46.835Z,73.31
2018-03-16T03:11:15.378Z,74.09
2018-03-16T03:13:43.656Z,74.47
2018-03-16T03:16:12.959Z,74.46
2018-03-16T03:18:41.244Z,74.71
2018-03-16T03:21:10.317Z,74.58
2018-03-16T03:23:38.672Z,74.03
2018-03-16T03:26:06.940Z,74.10
2018-03-16T03:28:35.233Z,74.14
2018-03-16T03:31:03.913Z,74.53
2018-03-16T03:33:32.193Z,73.54
2018-03-16T03:36:00.655Z,74.10
2018-03-16T03:38:28.912Z,74.31
2018-03-16T03:40:57.176Z,73.72
2018-03-16T03:43:26.321Z,74.12
2018-03-16T03:45:54.851Z,73.66
2018-03-16T03:48:23.922Z,74.09
2018-03-16T03:50:52.204Z,73.57
2018-03-16T03:53:20.516Z,73.78
2018-03-16T03:55:49.563Z,74.01
2018-03-16T03:58:17.844Z,73.40
2018-03-16T04:00:46.152Z,73.90
2018-03-16T04:03:15.728Z,73.25
2018-03-16T04:05:44.000Z,73.53
2018-03-16T04:08:12.364Z,73.48
2018-03-16T04:10:40.638Z,73.55
2018-03-16T04:13:08.896Z,74.04
2018-03-16T04:15:37.388Z,73.31
2018-03-16T04:18:06.939Z,73.23
2018-03-16T04:20:35.215Z,73.16
2018-03-16T04:23:03.561Z,73.28
2018-03-16T04:25:32.564Z,73.05
2018-03-16T04:28:02.163Z,72.82
2018-03-16T04:30:30.990Z,73.06
2018-03-16T04:32:59.280Z,72.74
2018-03-16T04:35:27.560Z,72.51
2018-03-16T04:37:56.228Z,73.40
2018-03-16T04:40:24.571Z,73.04
2018-03-16T04:42:52.840Z,72.96
2018-03-16T04:45:21.131Z,72.65
2018-03-16T04:47:49.513Z,72.26
2018-03-16T04:50:17.796Z,73.28
2018-03-16T04:52:46.082Z,72.57
2018-03-16T04:55:15.087Z,72.67
2018-03-16T04:57:44.041Z,73.96
2018-03-16T05:00:13.167Z,72.92
2018-03-16T05:02:41.441Z,72.91
2018-03-16T05:05:09.709Z,72.21
2018-03-16T05:07:38.009Z,72.79
2018-03-16T05:10:06.288Z,71.93
2018-03-16T05:12:35.278Z,71.32
2018-03-16T05:15:03.580Z,71.87
2018-03-16T05:17:31.888Z,71.84
2018-03-16T05:20:00.170Z,71.79
2018-03-16T05:22:28.584Z,71.17
2018-03-16T05:24:56.945Z,71.19
2018-03-16T05:27:25.215Z,71.23
2018-03-16T05:29:53.717Z,70.54
2018-03-16T05:32:21.984Z,70.36
2018-03-16T05:34:50.259Z,70.48
2018-03-16T05:39:47.467Z,70.70
2018-03-16T05:42:16.360Z,70.37
2018-03-16T05:44:44.812Z,70.50
2018-03-16T05:47:13.088Z,70.10
2018-03-16T05:49:41.375Z,69.73
2018-03-16T05:52:09.753Z,70.21
2018-03-16T05:54:38.600Z,69.88
2018-03-16T05:57:07.756Z,69.99
2018-03-16T05:59:36.025Z,69.85
2018-03-16T06:02:04.294Z,70.05
2018-03-16T06:04:33.692Z,69.45
2018-03-16T06:07:02.717Z,70.13
2018-03-16T06:09:31.428Z,69.20
2018-03-16T06:11:59.729Z,69.49
2018-03-16T06:14:28.750Z,69.57
2018-03-16T06:16:57.025Z,69.34
2018-03-16T06:19:26.641Z,69.10
2018-03-16T06:21:54.908Z,69.98
2018-03-16T06:24:24.537Z,69.17
2018-03-16T06:26:52.987Z,69.19
2018-03-16T06:29:21.998Z,69.64
2018-03-16T06:31:50.929Z,69.46
2018-03-16T06:34:19.348Z,68.62
2018-03-16T06:36:48.491Z,68.80
2018-03-16T06:39:17.085Z,68.95
2018-03-16T06:41:45.383Z,69.84
2018-03-16T06:44:13.661Z,69.13
2018-03-16T06:46:42.714Z,68.32
2018-03-16T06:49:11.408Z,68.18
2018-03-16T06:51:39.679Z,68.37
2018-03-16T06:54:07.981Z,68.88
2018-03-16T06:56:36.750Z,69.07
2018-03-16T06:59:05.040Z,69.00
2018-03-16T07:01:33.317Z,69.33
2018-03-16T07:04:02.001Z,69.53
2018-03-16T07:06:30.281Z,68.46
2018-03-16T07:08:58.968Z,68.83
2018-03-16T07:11:28.887Z,68.19
2018-03-16T07:13:57.150Z,68.55
2018-03-16T07:16:25.484Z,68.44
2018-03-16T07:18:54.635Z,68.86
2018-03-16T07:21:22.910Z,68.35
2018-03-16T07:23:51.887Z,68.05
2018-03-16T07:26:20.158Z,68.20
2018-03-16T07:28:48.433Z,68.59
2018-03-16T07:31:16.724Z,69.13
2018-03-16T07:33:45.534Z,68.58
2018-03-16T07:36:13.813Z,68.78
2018-03-16T07:38:42.108Z,67.87
2018-03-16T07:41:10.780Z,67.68
2018-03-16T07:43:39.041Z,68.01
2018-03-16T07:46:21.827Z,68.61
2018-03-16T07:48:50.119Z,68.69
2018-03-16T07:51:18.385Z,67.64
2018-03-16T07:53:46.800Z,68.00
2018-03-16T07:56:15.068Z,67.19
2018-03-16T07:58:43.912Z,67.31
2018-03-16T08:01:13.068Z,67.69
2018-03-16T08:03:41.456Z,67.76
2018-03-16T08:06:09.717Z,66.63
2018-03-16T08:08:38.021Z,67.43
2018-03-16T08:11:06.858Z,66.55
2018-03-16T08:13:35.143Z,66.12
2018-03-16T08:16:03.470Z,67.17
2018-03-16T08:18:32.322Z,66.79
2018-03-16T08:21:00.675Z,67.06
2018-03-16T08:23:30.121Z,67.31
2018-03-16T08:25:58.615Z,66.49
2018-03-16T08:28:26.888Z,65.20
2018-03-16T08:30:55.576Z,66.21
2018-03-16T08:33:23.945Z,65.72
2018-03-16T08:35:52.224Z,65.57
2018-03-16T08:38:20.505Z,65.41
2018-03-16T08:40:48.779Z,65.90
2018-03-16T08:43:17.102Z,65.56
2018-03-16T08:45:46.251Z,65.51
2018-03-16T08:48:14.624Z,64.70
2018-03-16T08:50:42.908Z,65.14
2018-03-16T08:53:11.341Z,64.41
2018-03-16T08:55:40.388Z,64.99
2018-03-16T08:58:08.857Z,64.59
2018-03-16T09:00:38.486Z,64.64
2018-03-16T09:03:06.761Z,64.87
2018-03-16T09:05:35.037Z,64.11
2018-03-16T09:08:03.306Z,63.73
2018-03-16T09:10:31.598Z,63.66
2018-03-16T09:12:59.973Z,63.32
2018-03-16T09:15:28.950Z,63.09
2018-03-16T09:17:57.245Z,64.75
2018-03-16T09:20:25.628Z,65.66
2018-03-16T09:22:53.915Z,63.22
2018-03-16T09:25:22.898Z,63.86
2018-03-16T09:27:52.633Z,63.84
2018-03-16T09:30:20.975Z,62.35
2018-03-16T09:32:49.233Z,61.95
2018-03-16T09:35:17.506Z,62.50
2018-03-16T09:37:45.801Z,62.82
2018-03-16T09:40:14.184Z,62.60
2018-03-16T09:42:42.729Z,61.64
2018-03-16T09:45:11.872Z,62.37
2018-03-16T09:47:40.752Z,61.69
2018-03-16T09:50:09.572Z,61.45
2018-03-16T09:52:38.309Z,60.87
2018-03-16T09:55:25.169Z,61.33
2018-03-16T09:57:54.576Z,60.85
2018-03-16T10:00:23.176Z,60.97
2018-03-16T10:02:52.248Z,60.51
2018-03-16T10:05:21.813Z,61.16
2018-03-16T10:07:50.869Z,60.29
2018-03-16T10:10:19.658Z,60.62
2018-03-16T10:12:47.928Z,60.03
2018-03-16T10:15:16.246Z,60.65
2018-03-16T10:17:46.155Z,60.88
2018-03-16T10:20:14.609Z,60.40
2018-03-16T10:22:42.929Z,61.27
2018-03-16T10:25:11.984Z,61.16
2018-03-16T10:27:40.829Z,60.73
2018-03-16T10:30:09.146Z,60.49
2018-03-16T10:32:37.457Z,60.86
2018-03-16T10:35:05.840Z,59.97
2018-03-16T10:37:34.909Z,59.99
2018-03-16T10:40:03.206Z,59.32
2018-03-16T10:42:32.100Z,60.52
2018-03-16T10:45:00.392Z,59.87
2018-03-16T10:47:29.573Z,59.85
2018-03-16T10:49:57.873Z,60.23
2018-03-16T10:52:27.827Z,60.08
2018-03-16T10:54:56.095Z,59.76
2018-03-16T10:57:25.073Z,59.31
2018-03-16T10:59:53.596Z,58.60
2018-03-16T11:02:23.083Z,57.90
2018-03-16T11:04:56.868Z,58.55
2018-03-16T11:10:31.942Z,58.37
2018-03-16T11:13:00.629Z,58.47
2018-03-16T11:15:29.293Z,57.35
2018-03-16T11:17:59.792Z,57.61
2018-03-16T11:20:28.153Z,58.28
2018-03-16T11:22:56.445Z,57.55
2018-03-16T11:25:25.340Z,56.95
2018-03-16T11:27:54.388Z,56.54
2018-03-16T11:30:23.759Z,57.09
2018-03-16T11:32:53.049Z,55.94
2018-03-16T11:35:21.380Z,56.77
2018-03-16T11:37:49.760Z,56.25
2018-03-16T11:40:18.056Z,55.69
2018-03-16T11:42:46.540Z,55.54
2018-03-16T11:45:15.220Z,56.19
2018-03-16T11:47:43.476Z,55.63
2018-03-16T11:50:11.787Z,55.73
2018-03-16T11:52:40.673Z,55.57
2018-03-16T11:55:08.936Z,55.99
2018-03-16T11:57:37.221Z,55.49
2018-03-16T12:00:05.782Z,54.84
2018-03-16T12:02:34.036Z,55.05
2018-03-16T12:05:03.122Z,55.06
2018-03-16T12:07:31.451Z,55.22
2018-03-16T12:10:00.283Z,54.25
2018-03-16T12:12:28.543Z,54.67
2018-03-16T12:14:57.608Z,54.96
2018-03-16T12:17:25.929Z,55.81
2018-03-16T12:19:54.206Z,57.28
2018-03-16T12:22:22.538Z,55.16
2018-03-16T12:24:53.875Z,55.74
2018-03-16T12:27:22.128Z,57.18
2018-03-16T12:29:52.129Z,54.98
2018-03-16T12:32:20.992Z,56.17
2018-03-16T12:34:49.623Z,57.23
2018-03-16T12:37:18.671Z,57.38
2018-03-16T12:39:46.933Z,56.13
2018-03-16T12:42:17.008Z,54.86
2018-03-16T12:44:45.288Z,56.49
2018-03-16T12:47:15.324Z,56.29
2018-03-16T12:49:45.369Z,56.03
2018-03-16T12:52:14.028Z,55.95
2018-03-16T12:54:43.167Z,55.67
2018-03-16T12:57:11.431Z,55.26
2018-03-16T12:59:39.703Z,56.20
2018-03-16T13:02:08.010Z,56.16
2018-03-16T13:04:36.284Z,56.61
2018-03-16T13:07:04.557Z,56.50
2018-03-16T13:09:32.882Z,57.07
2018-03-16T13:12:01.143Z,57.01
2018-03-16T13:14:29.404Z,57.16
2018-03-16T13:16:57.780Z,57.36
2018-03-16T13:19:26.071Z,57.30
2018-03-16T13:21:54.363Z,56.68
2018-03-16T13:24:22.717Z,56.52
2018-03-16T13:26:50.999Z,56.36
2018-03-16T13:29:19.327Z,55.97
2018-03-16T13:31:48.346Z,55.77
2018-03-16T13:34:17.538Z,54.58
2018-03-16T13:36:45.853Z,54.41
2018-03-16T13:39:14.462Z,53.28
2018-03-16T13:41:42.745Z,53.26
2018-03-16T13:44:11.793Z,52.05
2018-03-16T13:46:40.097Z,53.30
2018-03-16T13:49:08.761Z,52.05
2018-03-16T13:51:37.049Z,53.19
2018-03-16T13:54:05.424Z,51.00
2018-03-16T13:56:34.312Z,51.76
2018-03-16T13:59:02.634Z,52.36
2018-03-16T14:01:32.209Z,51.90
2018-03-16T14:04:00.480Z,53.25
2018-03-16T14:06:28.869Z,52.25
2018-03-16T14:08:57.171Z,52.17
2018-03-16T14:11:25.436Z,52.66
2018-03-16T14:13:53.784Z,52.36
2018-03-16T14:16:22.066Z,52.98
2018-03-16T14:18:50.537Z,51.72
2018-03-16T14:21:19.147Z,52.10
2018-03-16T14:23:47.412Z,51.03
2018-03-16T14:26:16.720Z,50.04
2018-03-16T14:28:45.009Z,49.57
2018-03-16T14:31:13.772Z,51.27
2018-03-16T14:33:42.161Z,50.72
2018-03-16T14:36:10.555Z,50.34
2018-03-16T14:38:39.690Z,48.00
2018-03-16T14:41:08.933Z,47.38
2018-03-16T14:43:37.212Z,47.70
2018-03-16T14:46:05.502Z,47.88
2018-03-16T14:48:33.861Z,49.19
2018-03-16T14:51:02.128Z,47.69
2018-03-16T14:53:30.392Z,47.96
2018-03-16T14:55:58.832Z,46.83
2018-03-16T14:58:27.109Z,46.52
2018-03-16T15:00:55.443Z,46.94
2018-03-16T15:03:23.853Z,46.75
2018-03-16T15:05:52.108Z,46.59
2018-03-16T15:08:20.405Z,46.33
2018-03-16T15:10:48.693Z,46.49
2018-03-16T15:13:17.686Z,47.68
2018-03-16T15:15:45.966Z,45.18
2018-03-16T15:18:14.479Z,46.10
2018-03-16T15:20:42.668Z,46.99
2018-03-16T15:23:11.761Z,47.96
2018-03-16T15:25:40.900Z,48.18
2018-03-16T15:28:09.841Z,48.17
2018-03-16T15:30:38.930Z,49.34
2018-03-16T15:33:07.212Z,49.69
2018-03-16T15:35:36.232Z,49.90
2018-03-16T15:38:04.507Z,50.70
2018-03-16T15:40:32.793Z,50.60
2018-03-16T15:43:02.152Z,51.44
2018-03-16T15:45:30.930Z,52.22
2018-03-16T15:47:59.733Z,52.01
2018-03-16T15:50:28.309Z,51.75
2018-03-16T15:52:56.607Z,52.71
2018-03-16T15:55:25.650Z,53.25
2018-03-16T15:57:54.049Z,53.04
2018-03-16T16:00:22.482Z,53.17
2018-03-16T16:02:51.518Z,53.62
2018-03-16T16:05:19.784Z,52.38
2018-03-16T16:07:48.073Z,52.94
2018-03-16T16:10:16.860Z,52.69
2018-03-16T16:12:45.140Z,53.34
2018-03-16T16:15:13.454Z,53.05
2018-03-16T16:17:41.716Z,53.70
2018-03-16T16:20:10.063Z,53.33
2018-03-16T16:22:39.203Z,53.36
2018-03-16T16:25:08.335Z,54.02
2018-03-16T16:27:36.956Z,53.09
2018-03-16T16:30:05.230Z,53.86
2018-03-16T16:32:33.520Z,53.58
2018-03-16T16:35:01.878Z,52.96
2018-03-16T16:37:30.136Z,52.93
2018-03-16T16:39:58.419Z,53.00
2018-03-16T16:42:27.148Z,53.04
2018-03-16T16:44:55.396Z,51.95
2018-03-16T16:47:23.657Z,52.35
2018-03-16T16:49:52.295Z,53.25
2018-03-16T16:52:21.180Z,53.24
2018-03-16T16:54:49.522Z,52.87
2018-03-16T16:57:17.770Z,52.73
2018-03-16T16:59:46.822Z,52.24
2018-03-16T17:02:15.291Z,53.43
2018-03-16T17:04:43.832Z,53.03
2018-03-16T17:07:14.297Z,53.53
2018-03-16T17:09:44.040Z,53.00
2018-03-16T17:12:12.322Z,53.54
2018-03-16T17:14:43.397Z,55.19
2018-03-16T17:17:12.786Z,54.48
2018-03-16T17:19:41.103Z,55.21
2018-03-16T17:22:09.609Z,54.34
2018-03-16T17:24:38.309Z,54.82
2018-03-16T17:27:08.305Z,55.22
2018-03-16T17:29:36.608Z,53.83
2018-03-16T17:32:04.933Z,53.41
2018-03-16T17:34:34.099Z,54.38
2018-03-16T17:37:02.395Z,53.60
2018-03-16T17:39:31.747Z,54.50
2018-03-16T17:42:00.685Z,54.30
2018-03-16T17:44:29.059Z,54.06
2018-03-16T17:46:57.358Z,54.25
2018-03-16T17:49:27.315Z,55.51
2018-03-16T17:51:55.624Z,54.16
2018-03-16T17:54:23.912Z,55.29
2018-03-16T17:56:52.905Z,54.34
2018-03-16T17:59:21.261Z,53.80
2018-03-16T18:01:50.136Z,53.54
2018-03-16T18:04:19.344Z,54.15
2018-03-16T18:06:47.728Z,54.45
2018-03-16T18:09:16.393Z,54.58
2018-03-16T18:11:44.660Z,53.90
2018-03-16T18:14:13.308Z,53.92
2018-03-16T18:16:41.608Z,53.87
2018-03-16T18:19:10.653Z,54.00
2018-03-16T18:21:38.962Z,54.24
2018-03-16T18:24:10.632Z,54.84
2018-03-16T18:26:39.781Z,54.07
2018-03-16T18:29:08.072Z,55.00
2018-03-16T18:31:36.445Z,54.00
2018-03-16T18:34:05.653Z,53.28
2018-03-16T18:36:33.914Z,52.95
2018-03-16T18:39:02.314Z,54.33
2018-03-16T18:41:30.757Z,53.95
2018-03-16T18:43:59.109Z,54.29
2018-03-16T18:46:29.829Z,54.68
2018-03-16T18:48:58.941Z,55.70
2018-03-16T18:51:27.972Z,56.44
2018-03-16T18:53:56.260Z,57.78
2018-03-16T18:56:25.174Z,57.66
2018-03-16T18:58:53.528Z,57.33
2018-03-16T19:01:21.821Z,56.90
2018-03-16T19:03:50.149Z,56.19
2018-03-16T19:06:19.220Z,55.85
2018-03-16T19:08:48.515Z,55.81
2018-03-16T19:11:16.806Z,55.84
2018-03-16T19:13:46.358Z,55.04
2018-03-16T19:16:16.350Z,54.39
2018-03-16T19:18:45.448Z,53.83
2018-03-16T19:21:14.009Z,53.49
2018-03-16T19:23:43.986Z,53.98
2018-03-16T19:26:12.419Z,53.49
2018-03-16T19:28:40.647Z,54.30
2018-03-16T19:31:09.086Z,53.62
2018-03-16T19:33:38.164Z,53.61
2018-03-16T19:36:07.329Z,53.80
2018-03-16T19:38:36.122Z,52.06
2018-03-16T19:41:04.489Z,53.37
2018-03-16T19:43:32.768Z,52.45
2018-03-16T19:46:01.096Z,52.37
2018-03-16T19:48:30.233Z,52.17
2018-03-16T19:50:59.132Z,52.78
2018-03-16T19:53:27.465Z,53.56
2018-03-16T19:55:56.504Z,53.58
2018-03-16T19:58:24.782Z,53.63
2018-03-16T20:00:54.452Z,53.19
2018-03-16T20:03:23.505Z,53.61
2018-03-16T20:05:52.499Z,53.33
2018-03-16T20:08:21.677Z,53.35
2018-03-16T20:10:50.000Z,52.68
2018-03-16T20:13:18.550Z,54.23
2018-03-16T20:15:46.840Z,54.64
2018-03-16T20:18:15.125Z,54.63
2018-03-16T20:20:43.608Z,55.07
2018-03-16T20:23:12.088Z,55.54
2018-03-16T20:25:40.424Z,57.72
2018-03-16T20:28:10.443Z,58.92
2018-03-16T20:30:38.720Z,59.68
2018-03-16T20:33:07.029Z,59.92
2018-03-16T20:35:35.392Z,60.08
2018-03-16T20:38:04.005Z,59.61
2018-03-16T20:40:32.277Z,59.51
2018-03-16T20:43:00.569Z,57.74
2018-03-16T20:45:29.538Z,57.01
2018-03-16T20:47:57.804Z,57.62
2018-03-16T20:50:26.821Z,57.28
2018-03-16T20:52:55.128Z,56.85
2018-03-16T20:55:24.201Z,57.83
2018-03-16T20:57:52.604Z,58.51
2018-03-16T21:00:20.965Z,58.87
2018-03-16T21:02:49.231Z,58.66
2018-03-16T21:05:17.809Z,57.56
2018-03-16T21:07:46.188Z,57.13
2018-03-16T21:10:14.502Z,57.68
2018-03-16T21:12:43.488Z,56.22
2018-03-16T21:15:11.784Z,56.90
2018-03-16T21:17:40.844Z,56.89
2018-03-16T21:20:09.515Z,56.45
2018-03-16T21:22:39.211Z,55.90
2018-03-16T21:25:07.501Z,54.77
2018-03-16T21:27:36.052Z,55.93
2018-03-16T21:30:05.109Z,55.51
2018-03-16T21:32:34.297Z,54.92
2018-03-16T21:35:02.614Z,54.76
2018-03-16T21:37:32.097Z,53.93
2018-03-16T21:40:00.863Z,54.29
2018-03-16T21:42:29.173Z,55.18
2018-03-16T21:44:57.493Z,56.17
2018-03-16T21:47:25.773Z,57.59
2018-03-16T21:49:54.178Z,58.32
2018-03-16T21:52:22.457Z,59.08
2018-03-16T21:54:50.720Z,58.95
2018-03-16T21:57:19.037Z,59.08
2018-03-16T21:59:47.348Z,59.31
2018-03-16T22:02:15.634Z,58.60
2018-03-16T22:04:44.536Z,57.61
2018-03-16T22:07:12.799Z,55.95
2018-03-16T22:09:41.410Z,55.37
2018-03-16T22:12:09.713Z,54.87
2018-03-16T22:14:38.989Z,55.92
2018-03-16T22:17:08.662Z,56.20
2018-03-16T22:19:38.210Z,58.11
2018-03-16T22:22:06.484Z,60.14
2018-03-16T22:24:34.755Z,62.37
2018-03-16T22:27:03.142Z,62.16
2018-03-16T22:29:31.428Z,63.81
2018-03-16T22:31:59.763Z,65.15
2018-03-16T22:34:28.148Z,66.52
2018-03-16T22:36:57.181Z,66.75
2018-03-16T22:39:25.905Z,65.92
2018-03-16T22:41:55.453Z,67.02
2018-03-16T22:44:24.684Z,65.77
2018-03-16T22:46:52.970Z,65.25
2018-03-16T22:49:21.271Z,63.71
2018-03-16T22:51:49.557Z,64.12
2018-03-16T22:54:20.629Z,63.71
2018-03-16T22:56:48.911Z,61.36
2018-03-16T22:59:17.190Z,60.43
2018-03-16T23:01:45.504Z,60.16
2018-03-16T23:04:14.904Z,59.79
2018-03-16T23:06:43.672Z,60.86
2018-03-16T23:09:12.005Z,59.91
2018-03-16T23:11:41.053Z,60.13
2018-03-16T23:14:09.328Z,60.12
2018-03-16T23:16:37.624Z,60.81
2018-03-16T23:19:05.893Z,61.27
2018-03-16T23:21:34.777Z,61.84
2018-03-16T23:24:03.121Z,62.24
2018-03-16T23:26:31.620Z,62.23
2018-03-16T23:29:00.430Z,63.31
2018-03-16T23:31:28.736Z,65.27
2018-03-16T23:33:57.931Z,67.07
2018-03-16T23:36:26.207Z,65.47
2018-03-16T23:38:54.497Z,65.06
2018-03-16T23:41:22.840Z,63.76
2018-03-16T23:43:51.884Z,64.00
2018-03-16T23:46:20.924Z,63.96
2018-03-16T23:48:49.228Z,63.12
2018-03-16T23:51:17.922Z,62.84
2018-03-16T23:53:46.189Z,62.55
2018-03-16T23:56:14.556Z,62.86
2018-03-16T23:58:42.829Z,63.07
